Time;durP1;ratioP1;P1;durP2;ratioP2;P2;SDS_P1;SDS_P2;PMS_P1;PMS_P2;Temp;Humidity;BMP_temperature;BMP_pressure;BME280_temperature;BME280_humidity;BME280_pressure;Samples;Min_cycle;Max_cycle;Signal;HPM_P1;HPM_P2
2022/01/16 00:02:09;;;;;;;18.80;12.30;;;;;;;;;;5080488;28;20236;-81
2022/01/16 00:04:35;;;;;;;15.17;9.00;;;;;;;;;;5079992;28;20326;-81
2022/01/16 00:07:04;;;;;;;14.40;10.37;;;;;;;;;;5078241;28;20315;-81
2022/01/16 00:09:31;;;;;;;14.00;9.17;;;;;;;;;;5073389;28;20225;-81
2022/01/16 00:12:00;;;;;;;20.13;13.27;;;;;;;;;;5074781;28;20203;-81
2022/01/16 00:14:28;;;;;;;14.87;9.50;;;;;;;;;;5081494;28;20240;-81
2022/01/16 00:16:55;;;;;;;16.23;10.20;;;;;;;;;;5078274;28;20202;-80
2022/01/16 00:19:22;;;;;;;16.90;10.13;;;;;;;;;;5077712;28;20237;-81
2022/01/16 00:21:50;;;;;;;20.70;11.80;;;;;;;;;;5085630;28;20694;-82
2022/01/16 00:24:18;;;;;;;16.27;10.13;;;;;;;;;;5080588;28;20240;-83
2022/01/16 00:26:45;;;;;;;17.07;9.53;;;;;;;;;;5081928;28;20212;-82
2022/01/16 00:29:12;;;;;;;16.20;9.60;;;;;;;;;;5080878;28;20644;-81
2022/01/16 00:31:40;;;;;;;14.53;8.17;;;;;;;;;;5080800;28;20252;-81
2022/01/16 00:34:08;;;;;;;18.77;10.80;;;;;;;;;;5079544;28;20229;-82
2022/01/16 00:36:35;;;;;;;15.50;9.17;;;;;;;;;;5075495;28;20666;-79
2022/01/16 00:39:04;;;;;;;16.13;9.57;;;;;;;;;;5074129;28;20239;-79
2022/01/16 00:41:32;;;;;;;14.57;9.67;;;;;;;;;;5077858;28;20229;-81
2022/01/16 00:43:59;;;;;;;16.47;10.03;;;;;;;;;;5076064;28;20648;-80
2022/01/16 00:46:26;;;;;;;16.47;9.13;;;;;;;;;;5076188;28;20216;-79
2022/01/16 00:48:53;;;;;;;16.03;9.57;;;;;;;;;;5075057;28;20238;-79
2022/01/16 00:51:20;;;;;;;14.80;9.47;;;;;;;;;;5075897;28;20229;-79
2022/01/16 00:53:47;;;;;;;16.80;9.83;;;;;;;;;;5074435;28;20763;-79
2022/01/16 00:56:16;;;;;;;12.97;9.70;;;;;;;;;;5080801;28;20205;-80
2022/01/16 00:58:43;;;;;;;13.63;9.67;;;;;;;;;;5086275;28;20241;-80
2022/01/16 01:01:10;;;;;;;15.40;9.53;;;;;;;;;;5075463;28;20608;-80
2022/01/16 01:03:38;;;;;;;15.73;9.60;;;;;;;;;;5074735;28;20267;-80
2022/01/16 01:06:05;;;;;;;16.10;10.10;;;;;;;;;;5075010;28;20209;-81
2022/01/16 01:08:32;;;;;;;18.20;10.67;;;;;;;;;;5074130;28;20239;-80
2022/01/16 01:11:02;;;;;;;17.87;11.03;;;;;;;;;;5075190;28;20259;-80
2022/01/16 01:13:44;;;;;;;18.73;10.70;;;;;;;;;;5074805;28;20235;-80
2022/01/16 01:16:15;;;;;;;17.13;9.67;;;;;;;;;;5074942;28;20209;-81
2022/01/16 01:18:44;;;;;;;15.53;9.60;;;;;;;;;;5075339;28;20241;-80
2022/01/16 01:21:24;;;;;;;14.73;9.37;;;;;;;;;;5074896;28;20233;-80
2022/01/16 01:23:51;;;;;;;18.73;10.47;;;;;;;;;;5074322;28;20316;-81
2022/01/16 01:26:20;;;;;;;18.60;10.70;;;;;;;;;;5075325;28;20209;-80
2022/01/16 01:28:48;;;;;;;19.43;11.97;;;;;;;;;;5074795;28;20245;-80
2022/01/16 01:31:15;;;;;;;17.90;11.73;;;;;;;;;;5074442;28;20239;-80
2022/01/16 01:33:42;;;;;;;17.73;11.67;;;;;;;;;;5073846;28;20246;-80
2022/01/16 01:36:09;;;;;;;23.07;11.90;;;;;;;;;;5073824;28;20696;-80
2022/01/16 01:38:36;;;;;;;23.30;13.13;;;;;;;;;;5073984;28;20662;-80
2022/01/16 01:41:03;;;;;;;20.10;11.40;;;;;;;;;;5074013;28;20233;-80
2022/01/16 01:51:47;;;;;;;22.50;14.47;;;;;;;;;;5074398;28;20196;-80
2022/01/16 01:54:14;;;;;;;23.83;14.27;;;;;;;;;;5073759;28;20816;-80
2022/01/16 01:56:42;;;;;;;25.30;13.83;;;;;;;;;;5074089;28;20206;-79
2022/01/16 01:59:10;;;;;;;24.43;13.33;;;;;;;;;;5073110;28;20229;-80
2022/01/16 02:01:38;;;;;;;23.27;13.70;;;;;;;;;;5074237;28;20251;-80
2022/01/16 02:04:06;;;;;;;24.63;14.73;;;;;;;;;;5054684;28;20238;-80
2022/01/16 02:06:33;;;;;;;25.03;14.70;;;;;;;;;;5051561;28;20206;-81
2022/01/16 02:09:01;;;;;;;29.73;15.40;;;;;;;;;;5061518;28;20238;-80
2022/01/16 02:11:31;;;;;;;28.23;16.27;;;;;;;;;;5049849;28;20219;-81
2022/01/16 02:14:05;;;;;;;23.73;13.37;;;;;;;;;;5039511;28;20958;-80
2022/01/16 02:35:56;;;;;;;25.83;13.37;;;;;;;;;;5039550;28;20202;-81
2022/01/16 02:38:24;;;;;;;24.27;12.33;;;;;;;;;;5039123;28;20372;-81
2022/01/16 02:40:54;;;;;;;32.40;13.87;;;;;;;;;;5039915;28;20280;-81
2022/01/16 02:43:29;;;;;;;24.43;13.03;;;;;;;;;;5039370;28;20234;-81
2022/01/16 02:46:35;;;;;;;27.60;13.77;;;;;;;;;;5039264;28;20202;-81
2022/01/16 02:48:44;;;;;;;18.57;11.73;;;;;;;;;;5038982;28;20307;-81
2022/01/16 02:51:11;;;;;;;23.63;13.80;;;;;;;;;;5039201;28;20231;-80
2022/01/16 02:53:39;;;;;;;24.70;12.83;;;;;;;;;;5038573;28;20257;-80
2022/01/16 02:56:06;;;;;;;24.57;13.50;;;;;;;;;;5039058;28;20709;-80
2022/01/16 02:58:34;;;;;;;27.10;15.53;;;;;;;;;;5039164;28;20226;-81
2022/01/16 03:01:01;;;;;;;27.97;15.43;;;;;;;;;;5039143;28;20226;-81
2022/01/16 03:03:28;;;;;;;26.63;15.07;;;;;;;;;;5038544;28;20576;-80
2022/01/16 03:05:55;;;;;;;27.93;15.13;;;;;;;;;;5039299;28;20264;-81
2022/01/16 03:08:22;;;;;;;25.87;14.40;;;;;;;;;;5038957;28;20238;-80
2022/01/16 03:11:07;;;;;;;27.57;13.93;;;;;;;;;;5039066;28;20226;-80
2022/01/16 03:13:34;;;;;;;26.43;15.57;;;;;;;;;;5039303;28;20241;-81
2022/01/16 03:16:01;;;;;;;30.67;14.13;;;;;;;;;;5039639;28;20212;-81
2022/01/16 03:23:58;;;;;;;35.57;18.03;;;;;;;;;;5038429;28;20276;-81
2022/01/16 03:26:27;;;;;;;34.13;16.80;;;;;;;;;;5039666;28;20270;-81
2022/01/16 03:28:54;;;;;;;38.00;18.17;;;;;;;;;;5038657;28;20238;-81
2022/01/16 03:31:21;;;;;;;35.47;16.90;;;;;;;;;;5039870;28;20223;-81
2022/01/16 03:33:48;;;;;;;33.93;16.80;;;;;;;;;;5038385;28;20241;-81
2022/01/16 03:36:15;;;;;;;28.97;15.70;;;;;;;;;;5038097;28;20730;-81
2022/01/16 03:38:42;;;;;;;38.00;18.30;;;;;;;;;;5038501;28;20234;-81
2022/01/16 03:41:09;;;;;;;38.50;17.53;;;;;;;;;;5038529;28;20231;-81
2022/01/16 03:43:37;;;;;;;37.63;16.23;;;;;;;;;;5038249;28;20242;-81
2022/01/16 03:46:04;;;;;;;17.30;9.43;;;;;;;;;;5039764;28;20207;-81
2022/01/16 03:48:31;;;;;;;42.17;18.97;;;;;;;;;;5042041;28;20234;-81
2022/01/16 03:50:58;;;;;;;38.83;19.43;;;;;;;;;;5043223;28;20329;-81
2022/01/16 03:53:26;;;;;;;40.30;18.77;;;;;;;;;;5042376;28;20241;-81
2022/01/16 03:55:53;;;;;;;33.17;17.50;;;;;;;;;;5042036;28;20214;-81
2022/01/16 03:58:20;;;;;;;47.60;17.70;;;;;;;;;;5042289;28;20231;-81
2022/01/16 04:00:49;;;;;;;39.57;18.43;;;;;;;;;;5062083;28;20228;-81
2022/01/16 04:03:16;;;;;;;48.27;21.90;;;;;;;;;;5063151;28;20233;-81
2022/01/16 04:05:43;;;;;;;44.03;21.27;;;;;;;;;;5062783;28;20206;-81
2022/01/16 04:08:10;;;;;;;40.37;19.93;;;;;;;;;;5062019;28;20236;-81
2022/01/16 04:10:37;;;;;;;46.90;22.23;;;;;;;;;;5062356;28;20228;-81
2022/01/16 04:13:04;;;;;;;49.13;22.07;;;;;;;;;;5061799;28;20237;-81
2022/01/16 04:15:34;;;;;;;43.40;20.33;;;;;;;;;;5063824;28;20240;-81
2022/01/16 04:18:04;;;;;;;35.87;16.30;;;;;;;;;;5062575;28;20293;-81
2022/01/16 04:20:32;;;;;;;50.63;21.73;;;;;;;;;;5062416;28;20230;-80
2022/01/16 04:22:59;;;;;;;47.30;22.07;;;;;;;;;;5061118;28;20241;-81
2022/01/16 04:25:26;;;;;;;40.07;20.57;;;;;;;;;;5061726;28;20210;-81
2022/01/16 04:27:54;;;;;;;49.20;21.77;;;;;;;;;;5069503;28;20263;-80
2022/01/16 04:30:21;;;;;;;56.40;23.97;;;;;;;;;;5082354;28;20762;-81
2022/01/16 04:32:48;;;;;;;51.77;21.37;;;;;;;;;;5081702;28;20241;-81
2022/01/16 04:35:16;;;;;;;43.17;21.63;;;;;;;;;;5081396;28;20221;-81
2022/01/16 04:37:43;;;;;;;41.13;18.33;;;;;;;;;;5081323;28;20237;-81
2022/01/16 04:40:11;;;;;;;54.93;24.33;;;;;;;;;;5081494;28;20233;-81
2022/01/16 04:45:23;;;;;;;52.73;22.80;;;;;;;;;;5081519;28;20204;-81
2022/01/16 04:47:51;;;;;;;43.83;18.30;;;;;;;;;;5080766;28;20237;-81
2022/01/16 04:50:21;;;;;;;41.03;20.13;;;;;;;;;;5081366;28;20701;-81
2022/01/16 04:52:49;;;;;;;58.40;22.27;;;;;;;;;;5085171;28;20233;-81
2022/01/16 04:55:17;;;;;;;50.93;20.87;;;;;;;;;;5085851;28;20251;-81
2022/01/16 04:57:44;;;;;;;55.73;24.40;;;;;;;;;;5081321;28;20236;-81
2022/01/16 05:00:13;;;;;;;50.77;22.63;;;;;;;;;;5081308;28;20224;-81
2022/01/16 05:02:40;;;;;;;56.73;24.37;;;;;;;;;;5075151;28;20745;-80
2022/01/16 05:05:07;;;;;;;53.23;24.07;;;;;;;;;;5060779;28;20626;-80
2022/01/16 05:07:35;;;;;;;55.10;22.93;;;;;;;;;;5061733;28;20229;-80
2022/01/16 05:10:05;;;;;;;50.00;18.97;;;;;;;;;;5060706;28;20230;-81
2022/01/16 05:12:35;;;;;;;32.97;16.57;;;;;;;;;;5061503;28;20692;-80
2022/01/16 05:17:47;;;;;;;45.53;19.40;;;;;;;;;;5060547;28;20288;-81
2022/01/16 05:20:14;;;;;;;56.70;24.00;;;;;;;;;;5061506;28;20233;-81
2022/01/16 05:22:42;;;;;;;44.93;19.10;;;;;;;;;;5060362;28;20237;-81
2022/01/16 05:25:12;;;;;;;47.80;21.27;;;;;;;;;;5061999;28;20217;-81
2022/01/16 05:27:39;;;;;;;44.37;18.80;;;;;;;;;;5061440;28;20240;-81
2022/01/16 05:30:07;;;;;;;51.70;22.13;;;;;;;;;;5062094;28;20687;-81
2022/01/16 05:32:34;;;;;;;50.10;23.57;;;;;;;;;;5072589;28;20234;-81
2022/01/16 05:35:01;;;;;;;43.93;22.20;;;;;;;;;;5074935;28;20210;-81
2022/01/16 05:37:28;;;;;;;43.87;20.43;;;;;;;;;;5076904;28;20255;-81
2022/01/16 05:39:56;;;;;;;45.47;18.20;;;;;;;;;;5081493;28;20244;-80
2022/01/16 05:42:23;;;;;;;42.13;19.47;;;;;;;;;;5082187;28;20237;-81
2022/01/16 05:44:50;;;;;;;46.37;21.33;;;;;;;;;;5084035;28;20210;-81
2022/01/16 05:47:17;;;;;;;39.13;19.87;;;;;;;;;;5085818;28;20664;-81
2022/01/16 05:49:44;;;;;;;45.50;22.27;;;;;;;;;;5083227;28;20237;-81
2022/01/16 05:52:13;;;;;;;27.07;13.83;;;;;;;;;;5091904;28;20209;-82
2022/01/16 05:54:40;;;;;;;36.90;20.70;;;;;;;;;;5093340;28;20202;-81
2022/01/16 05:57:09;;;;;;;33.67;17.23;;;;;;;;;;5092745;28;20212;-81
2022/01/16 05:59:36;;;;;;;33.40;17.70;;;;;;;;;;5093461;28;20204;-81
2022/01/16 06:02:03;;;;;;;29.80;15.23;;;;;;;;;;5091092;28;20201;-81
2022/01/16 06:04:30;;;;;;;29.60;15.57;;;;;;;;;;5071964;28;20210;-81
2022/01/16 06:06:57;;;;;;;29.33;15.30;;;;;;;;;;5072323;28;20213;-81
2022/01/16 06:09:26;;;;;;;32.73;17.27;;;;;;;;;;5071692;28;20221;-81
2022/01/16 06:11:53;;;;;;;35.27;17.27;;;;;;;;;;5072806;28;20221;-81
2022/01/16 06:14:22;;;;;;;34.40;18.57;;;;;;;;;;5071574;28;20230;-81
2022/01/16 06:16:49;;;;;;;34.50;17.57;;;;;;;;;;5072606;28;20191;-81
2022/01/16 06:19:16;;;;;;;27.80;14.53;;;;;;;;;;5071323;28;20234;-81
2022/01/16 06:21:43;;;;;;;38.00;19.50;;;;;;;;;;5072850;28;20240;-81
2022/01/16 06:24:10;;;;;;;38.27;20.73;;;;;;;;;;5072940;28;20229;-81
2022/01/16 06:26:37;;;;;;;35.00;18.40;;;;;;;;;;5074183;28;20215;-81
2022/01/16 06:29:04;;;;;;;38.87;19.03;;;;;;;;;;5070763;28;20249;-81
2022/01/16 06:31:32;;;;;;;38.87;20.20;;;;;;;;;;5066612;28;20226;-81
2022/01/16 06:34:01;;;;;;;35.80;19.00;;;;;;;;;;5067166;28;20244;-81
2022/01/16 06:36:29;;;;;;;33.97;20.83;;;;;;;;;;5069563;28;20213;-81
2022/01/16 06:38:56;;;;;;;28.47;16.47;;;;;;;;;;5071157;28;20217;-81
2022/01/16 06:41:23;;;;;;;41.40;24.63;;;;;;;;;;5071958;28;20256;-82
2022/01/16 06:43:50;;;;;;;38.57;22.63;;;;;;;;;;5064306;28;20233;-81
2022/01/16 06:46:17;;;;;;;33.57;17.63;;;;;;;;;;5072033;28;20210;-81
2022/01/16 06:48:46;;;;;;;35.23;19.77;;;;;;;;;;5086398;28;20232;-81
2022/01/16 06:51:13;;;;;;;40.57;20.93;;;;;;;;;;5092557;28;20233;-81
2022/01/16 06:53:40;;;;;;;35.23;19.80;;;;;;;;;;5084517;28;20211;-81
2022/01/16 06:56:07;;;;;;;22.93;12.33;;;;;;;;;;5093661;28;20190;-81
2022/01/16 06:58:34;;;;;;;40.77;21.23;;;;;;;;;;5093605;28;20255;-80
2022/01/16 07:01:01;;;;;;;44.07;21.33;;;;;;;;;;5094079;28;20217;-81
2022/01/16 07:03:28;;;;;;;32.30;17.53;;;;;;;;;;5092486;28;20241;-82
2022/01/16 07:05:57;;;;;;;34.40;17.37;;;;;;;;;;5094087;28;20205;-82
2022/01/16 07:08:26;;;;;;;32.67;18.67;;;;;;;;;;5082444;28;20229;-81
2022/01/16 07:10:54;;;;;;;36.03;18.33;;;;;;;;;;5061685;28;20238;-81
2022/01/16 07:13:21;;;;;;;23.73;10.70;;;;;;;;;;5061382;28;20261;-81
2022/01/16 07:15:48;;;;;;;31.00;14.10;;;;;;;;;;5062210;28;20210;-82
2022/01/16 07:18:15;;;;;;;32.53;17.40;;;;;;;;;;5061563;28;20241;-82
2022/01/16 07:20:43;;;;;;;33.63;18.57;;;;;;;;;;5077127;28;20335;-82
2022/01/16 07:23:12;;;;;;;40.67;20.57;;;;;;;;;;5084890;28;20296;-82
2022/01/16 07:25:39;;;;;;;28.60;17.30;;;;;;;;;;5086222;28;20197;-82
2022/01/16 07:28:06;;;;;;;24.63;14.57;;;;;;;;;;5087414;28;20236;-82
2022/01/16 07:30:36;;;;;;;29.97;15.43;;;;;;;;;;5091894;28;20221;-84
2022/01/16 07:33:03;;;;;;;27.67;16.23;;;;;;;;;;5095065;28;20260;-83
2022/01/16 07:35:30;;;;;;;27.90;14.87;;;;;;;;;;5095058;28;20220;-82
2022/01/16 07:37:57;;;;;;;28.17;16.70;;;;;;;;;;5096823;28;20240;-83
2022/01/16 07:40:26;;;;;;;24.53;14.57;;;;;;;;;;5094855;28;20229;-83
2022/01/16 07:42:53;;;;;;;25.20;14.80;;;;;;;;;;5091162;28;20236;-83
2022/01/16 07:45:20;;;;;;;19.93;12.33;;;;;;;;;;5091897;28;20259;-82
2022/01/16 07:47:48;;;;;;;21.97;13.43;;;;;;;;;;5091582;28;20235;-82
2022/01/16 07:50:15;;;;;;;20.33;11.03;;;;;;;;;;5099429;28;20233;-83
2022/01/16 07:52:42;;;;;;;26.87;15.30;;;;;;;;;;5113803;28;20232;-83
2022/01/16 07:55:10;;;;;;;25.07;14.13;;;;;;;;;;5111081;28;20223;-82
2022/01/16 07:57:38;;;;;;;25.73;14.80;;;;;;;;;;5109592;28;20704;-83
2022/01/16 08:00:06;;;;;;;25.03;15.57;;;;;;;;;;5092568;28;20221;-84
2022/01/16 08:02:33;;;;;;;26.03;14.03;;;;;;;;;;5078584;28;20236;-84
2022/01/16 08:05:00;;;;;;;15.73;11.07;;;;;;;;;;5082271;28;20185;-84
2022/01/16 08:07:27;;;;;;;30.87;16.50;;;;;;;;;;5079840;28;20249;-84
2022/01/16 08:09:54;;;;;;;31.67;17.27;;;;;;;;;;5079356;28;20732;-84
2022/01/16 08:12:21;;;;;;;35.50;16.50;;;;;;;;;;5076424;28;20236;-83
2022/01/16 08:14:50;;;;;;;26.87;14.20;;;;;;;;;;5076317;28;20217;-83
2022/01/16 08:17:17;;;;;;;30.80;15.53;;;;;;;;;;5075888;28;20201;-83
2022/01/16 08:19:44;;;;;;;28.50;16.73;;;;;;;;;;5076376;28;20225;-83
2022/01/16 08:22:11;;;;;;;32.97;17.47;;;;;;;;;;5075731;28;20209;-83
2022/01/16 08:24:39;;;;;;;23.97;13.70;;;;;;;;;;5076002;28;20212;-84
2022/01/16 08:27:06;;;;;;;25.57;14.07;;;;;;;;;;5075037;28;20563;-85
2022/01/16 08:29:33;;;;;;;31.60;17.60;;;;;;;;;;5075848;28;20221;-84
2022/01/16 08:32:02;;;;;;;31.03;17.67;;;;;;;;;;5076227;28;20205;-84
2022/01/16 08:34:29;;;;;;;26.60;14.87;;;;;;;;;;5077157;28;20249;-83
2022/01/16 08:36:56;;;;;;;29.47;16.27;;;;;;;;;;5076348;28;20288;-84
2022/01/16 08:39:23;;;;;;;27.30;14.20;;;;;;;;;;5077165;28;20236;-84
2022/01/16 08:41:51;;;;;;;34.00;18.07;;;;;;;;;;5076430;28;20208;-84
2022/01/16 08:44:19;;;;;;;36.57;19.47;;;;;;;;;;5077486;28;20237;-83
2022/01/16 08:46:51;;;;;;;31.97;16.03;;;;;;;;;;5077545;28;20201;-86
2022/01/16 08:49:19;;;;;;;35.27;19.57;;;;;;;;;;5075176;28;20225;-84
2022/01/16 08:51:50;;;;;;;41.03;19.37;;;;;;;;;;5076337;28;20221;-84
2022/01/16 08:54:17;;;;;;;32.13;18.73;;;;;;;;;;5076782;28;20591;-84
2022/01/16 08:56:44;;;;;;;33.07;19.17;;;;;;;;;;5076116;28;20780;-83
2022/01/16 08:59:11;;;;;;;31.60;16.43;;;;;;;;;;5076174;28;20241;-84
2022/01/16 09:01:38;;;;;;;38.80;20.10;;;;;;;;;;5075697;28;20228;-84
2022/01/16 09:04:06;;;;;;;33.77;18.80;;;;;;;;;;5074560;28;20229;-83
2022/01/16 09:06:34;;;;;;;34.37;18.97;;;;;;;;;;5076249;28;20201;-83
2022/01/16 09:09:01;;;;;;;27.70;15.67;;;;;;;;;;5064440;28;20229;-83
2022/01/16 09:11:28;;;;;;;35.70;19.10;;;;;;;;;;5076772;28;20225;-84
2022/01/16 09:13:55;;;;;;;30.13;15.53;;;;;;;;;;5075480;28;20233;-83
2022/01/16 09:16:23;;;;;;;28.47;12.50;;;;;;;;;;5076274;28;20208;-84
2022/01/16 09:18:50;;;;;;;40.67;20.10;;;;;;;;;;5075248;28;20713;-84
2022/01/16 09:21:17;;;;;;;24.00;14.30;;;;;;;;;;5063071;28;20309;-83
2022/01/16 09:23:46;;;;;;;29.30;14.80;;;;;;;;;;5061896;28;20240;-83
2022/01/16 09:26:13;;;;;;;41.73;20.93;;;;;;;;;;5055588;28;20213;-83
2022/01/16 09:28:40;;;;;;;29.87;15.47;;;;;;;;;;5058501;28;20237;-82
2022/01/16 09:31:07;;;;;;;41.27;20.47;;;;;;;;;;5075220;28;20595;-83
2022/01/16 09:33:34;;;;;;;33.37;17.50;;;;;;;;;;5056216;28;20233;-83
2022/01/16 09:36:02;;;;;;;35.47;19.37;;;;;;;;;;5074768;28;20208;-84
2022/01/16 09:38:29;;;;;;;40.60;20.20;;;;;;;;;;5070026;28;20226;-83
2022/01/16 09:40:58;;;;;;;43.50;20.03;;;;;;;;;;5078236;28;20221;-85
2022/01/16 09:43:25;;;;;;;46.70;22.63;;;;;;;;;;5078626;28;20237;-87
2022/01/16 09:45:53;;;;;;;39.33;21.37;;;;;;;;;;5081666;28;20205;-84
2022/01/16 09:48:20;;;;;;;42.03;21.10;;;;;;;;;;5078647;28;20255;-85
2022/01/16 09:50:48;;;;;;;49.07;22.83;;;;;;;;;;5076278;28;20270;-86
2022/01/16 09:53:15;;;;;;;39.20;19.10;;;;;;;;;;5073866;28;20233;-85
2022/01/16 09:55:43;;;;;;;42.33;21.63;;;;;;;;;;5075270;28;20210;-85
2022/01/16 09:58:11;;;;;;;42.30;21.10;;;;;;;;;;5074541;28;20244;-85
2022/01/16 10:00:39;;;;;;;41.37;21.60;;;;;;;;;;5066971;28;20225;-85
2022/01/16 10:03:06;;;;;;;30.17;16.57;;;;;;;;;;5089920;28;20240;-86
2022/01/16 10:05:35;;;;;;;44.60;22.50;;;;;;;;;;5097363;28;20204;-83
2022/01/16 10:08:04;;;;;;;40.57;20.27;;;;;;;;;;5095363;28;20708;-86
2022/01/16 10:10:32;;;;;;;42.70;22.77;;;;;;;;;;5087494;28;20224;-85
2022/01/16 10:13:07;;;;;;;51.40;22.73;;;;;;;;;;5074026;28;20312;-86
2022/01/16 10:15:36;;;;;;;45.30;22.60;;;;;;;;;;5075196;28;20185;-86
2022/01/16 10:18:08;;;;;;;33.60;16.37;;;;;;;;;;5074647;28;20239;-86
2022/01/16 10:20:43;;;;;;;43.73;20.73;;;;;;;;;;5080501;28;20620;-85
2022/01/16 10:23:17;;;;;;;35.00;18.00;;;;;;;;;;5075059;28;20708;-87
2022/01/16 10:25:45;;;;;;;42.20;21.00;;;;;;;;;;5076060;28;20214;-86
2022/01/16 10:28:13;;;;;;;39.43;19.43;;;;;;;;;;5076105;28;20309;-86
2022/01/16 10:30:43;;;;;;;36.80;18.13;;;;;;;;;;5081516;28;20262;-88
2022/01/16 10:33:14;;;;;;;35.90;19.97;;;;;;;;;;5091150;28;20228;-85
2022/01/16 10:35:41;;;;;;;30.33;14.73;;;;;;;;;;5078353;28;20201;-86
2022/01/16 10:38:10;;;;;;;38.10;20.40;;;;;;;;;;5083440;28;20240;-86
2022/01/16 10:40:38;;;;;;;20.50;11.87;;;;;;;;;;5074125;28;20228;-85
2022/01/16 10:43:13;;;;;;;40.50;19.50;;;;;;;;;;5074402;28;20233;-85
2022/01/16 10:45:42;;;;;;;30.30;15.13;;;;;;;;;;5074470;28;20556;-84
2022/01/16 10:48:09;;;;;;;29.87;16.43;;;;;;;;;;5077558;28;20282;-85
2022/01/16 10:50:38;;;;;;;27.73;14.20;;;;;;;;;;5076752;28;20738;-85
2022/01/16 10:53:06;;;;;;;41.60;23.33;;;;;;;;;;5074804;28;20245;-86
2022/01/16 10:55:35;;;;;;;28.67;16.50;;;;;;;;;;5074341;28;20200;-85
2022/01/16 10:58:05;;;;;;;34.57;18.00;;;;;;;;;;5076524;28;20237;-85
2022/01/16 11:00:32;;;;;;;36.90;18.77;;;;;;;;;;5076694;28;20229;-85
2022/01/16 11:03:02;;;;;;;34.80;20.07;;;;;;;;;;5075320;28;20240;-84
2022/01/16 11:05:34;;;;;;;29.50;13.83;;;;;;;;;;5075024;28;20229;-84
2022/01/16 11:08:02;;;;;;;35.20;17.27;;;;;;;;;;5075155;28;20260;-84
2022/01/16 11:10:30;;;;;;;28.03;16.03;;;;;;;;;;5076711;28;20315;-85
2022/01/16 11:12:58;;;;;;;35.40;18.57;;;;;;;;;;5075099;28;20237;-85
2022/01/16 11:15:26;;;;;;;24.27;12.27;;;;;;;;;;5079711;28;20208;-85
2022/01/16 11:17:53;;;;;;;39.20;20.70;;;;;;;;;;5077389;28;20243;-84
2022/01/16 11:20:28;;;;;;;21.97;12.50;;;;;;;;;;5080976;28;20228;-84
2022/01/16 11:23:01;;;;;;;31.67;18.90;;;;;;;;;;5076377;28;20232;-85
2022/01/16 11:25:33;;;;;;;31.73;17.27;;;;;;;;;;5057533;28;20221;-86
2022/01/16 11:28:02;;;;;;;31.57;16.53;;;;;;;;;;5071520;28;20225;-87
2022/01/16 11:30:30;;;;;;;25.70;14.37;;;;;;;;;;5077705;28;20302;-86
2022/01/16 11:32:57;;;;;;;16.73;9.37;;;;;;;;;;5056236;28;20303;-86
2022/01/16 11:35:26;;;;;;;33.63;17.97;;;;;;;;;;5054214;28;20230;-85
2022/01/16 11:37:53;;;;;;;22.17;12.83;;;;;;;;;;5053155;28;20238;-86
2022/01/16 11:40:24;;;;;;;29.13;17.10;;;;;;;;;;5053401;28;20222;-86
2022/01/16 11:43:17;;;;;;;35.53;20.50;;;;;;;;;;5054937;28;20705;-87
2022/01/16 11:45:55;;;;;;;31.63;17.43;;;;;;;;;;5052706;28;20213;-86
2022/01/16 11:48:36;;;;;;;23.53;13.93;;;;;;;;;;5063624;28;20224;-86
2022/01/16 11:51:05;;;;;;;27.47;15.67;;;;;;;;;;5086187;28;20229;-85
2022/01/16 11:53:50;;;;;;;27.73;15.27;;;;;;;;;;5082947;28;20243;-85
2022/01/16 11:56:36;;;;;;;32.90;18.20;;;;;;;;;;5080983;28;20212;-86
2022/01/16 11:59:16;;;;;;;36.03;20.17;;;;;;;;;;5082777;28;20233;-87
2022/01/16 12:01:43;;;;;;;31.47;17.07;;;;;;;;;;5082503;28;20234;-86
2022/01/16 12:04:36;;;;;;;17.80;10.87;;;;;;;;;;5079848;28;20244;-86
2022/01/16 12:07:24;;;;;;;37.90;21.33;;;;;;;;;;5083447;28;20209;-83
2022/01/16 12:09:57;;;;;;;40.67;20.90;;;;;;;;;;5088277;28;20224;-84
2022/01/16 12:12:36;;;;;;;40.97;19.30;;;;;;;;;;5090613;28;20241;-84
2022/01/16 12:15:05;;;;;;;35.67;19.47;;;;;;;;;;5089056;28;20204;-84
2022/01/16 12:17:33;;;;;;;36.27;17.83;;;;;;;;;;5086619;28;20256;-86
2022/01/16 12:20:00;;;;;;;31.67;18.70;;;;;;;;;;5085412;28;20221;-86
2022/01/16 12:22:48;;;;;;;34.63;20.10;;;;;;;;;;5082345;28;20233;-85
2022/01/16 12:25:20;;;;;;;33.17;16.67;;;;;;;;;;5070056;28;20553;-85
2022/01/16 12:27:49;;;;;;;31.70;18.20;;;;;;;;;;5072605;28;20229;-86
2022/01/16 12:30:18;;;;;;;34.93;18.33;;;;;;;;;;5089101;28;20225;-84
2022/01/16 12:32:58;;;;;;;38.73;20.83;;;;;;;;;;5091751;28;20576;-85
2022/01/16 12:35:48;;;;;;;39.60;20.57;;;;;;;;;;5089624;28;20197;-85
2022/01/16 12:38:16;;;;;;;30.50;17.20;;;;;;;;;;5084091;28;20237;-86
2022/01/16 12:40:45;;;;;;;26.70;14.77;;;;;;;;;;5086904;28;20228;-85
2022/01/16 12:43:20;;;;;;;40.70;20.40;;;;;;;;;;5082261;28;20239;-87
2022/01/16 12:45:47;;;;;;;35.90;20.00;;;;;;;;;;5080095;28;20193;-85
2022/01/16 12:48:15;;;;;;;39.13;20.67;;;;;;;;;;5077820;28;20240;-86
2022/01/16 12:50:42;;;;;;;26.70;15.20;;;;;;;;;;5085016;28;20229;-86
2022/01/16 12:53:10;;;;;;;31.90;17.30;;;;;;;;;;5089138;28;20236;-87
2022/01/16 12:55:40;;;;;;;21.13;12.03;;;;;;;;;;5089234;28;20204;-86
2022/01/16 12:58:18;;;;;;;30.63;16.20;;;;;;;;;;5084033;28;20311;-85
2022/01/16 13:00:59;;;;;;;31.93;18.17;;;;;;;;;;5084305;28;20225;-88
2022/01/16 13:03:26;;;;;;;32.80;18.13;;;;;;;;;;5083837;28;20240;-89
2022/01/16 13:05:54;;;;;;;30.07;15.20;;;;;;;;;;5085630;28;20216;-87
2022/01/16 13:08:21;;;;;;;36.73;19.17;;;;;;;;;;5085697;28;20221;-87
2022/01/16 13:10:48;;;;;;;35.83;19.13;;;;;;;;;;5078687;28;20233;-86
2022/01/16 13:13:17;;;;;;;32.27;18.13;;;;;;;;;;5074970;28;20236;-87
2022/01/16 13:15:44;;;;;;;37.03;18.23;;;;;;;;;;5074757;28;20205;-86
2022/01/16 13:18:12;;;;;;;27.20;15.90;;;;;;;;;;5073578;28;20258;-87
2022/01/16 13:20:40;;;;;;;31.00;17.27;;;;;;;;;;5091823;28;20212;-85
2022/01/16 13:23:07;;;;;;;30.70;17.00;;;;;;;;;;5090814;28;20231;-87
2022/01/16 13:25:35;;;;;;;21.47;11.73;;;;;;;;;;5103014;28;20198;-85
2022/01/16 13:28:02;;;;;;;35.20;17.27;;;;;;;;;;5090001;28;20233;-86
2022/01/16 13:30:34;;;;;;;26.17;16.17;;;;;;;;;;5078385;28;20724;-86
2022/01/16 13:33:03;;;;;;;25.10;15.87;;;;;;;;;;5076096;28;20251;-85
2022/01/16 13:35:31;;;;;;;25.37;16.17;;;;;;;;;;5076563;28;20235;-86
2022/01/16 13:38:03;;;;;;;27.53;16.13;;;;;;;;;;5075134;28;20727;-86
2022/01/16 13:40:31;;;;;;;21.53;14.27;;;;;;;;;;5075974;28;20236;-86
2022/01/16 13:43:10;;;;;;;26.67;15.70;;;;;;;;;;5054622;28;20240;-87
2022/01/16 13:45:40;;;;;;;24.07;15.23;;;;;;;;;;5055028;28;20237;-86
2022/01/16 13:48:09;;;;;;;27.50;15.77;;;;;;;;;;5054177;28;20240;-87
2022/01/16 13:50:40;;;;;;;25.27;14.30;;;;;;;;;;5055277;28;20689;-87
2022/01/16 13:53:08;;;;;;;21.93;13.83;;;;;;;;;;5054195;28;20243;-83
2022/01/16 13:55:46;;;;;;;19.00;11.43;;;;;;;;;;5071848;28;20220;-88
2022/01/16 13:58:14;;;;;;;22.57;13.47;;;;;;;;;;5073706;28;20233;-84
2022/01/16 14:00:42;;;;;;;26.47;14.90;;;;;;;;;;5075147;28;20232;-84
2022/01/16 14:03:14;;;;;;;24.17;15.43;;;;;;;;;;5075720;28;20233;-86
2022/01/16 14:05:42;;;;;;;27.10;15.40;;;;;;;;;;5076093;28;20201;-85
2022/01/16 14:08:20;;;;;;;19.77;13.60;;;;;;;;;;5076944;28;20230;-85
2022/01/16 14:10:47;;;;;;;21.87;11.10;;;;;;;;;;5094724;28;20224;-85
2022/01/16 14:13:14;;;;;;;24.03;14.93;;;;;;;;;;5094282;28;20248;-84
2022/01/16 14:15:43;;;;;;;20.57;13.73;;;;;;;;;;5097345;28;20205;-85
2022/01/16 14:18:28;;;;;;;22.53;14.63;;;;;;;;;;5093693;28;20247;-86
2022/01/16 14:21:58;;;;;;;22.83;14.13;;;;;;;;;;5095203;28;20225;-85
2022/01/16 14:23:45;;;;;;;22.40;12.17;;;;;;;;;;5096285;28;20236;-85
2022/01/16 14:26:12;;;;;;;20.20;13.80;;;;;;;;;;5082395;28;20658;-84
2022/01/16 14:28:39;;;;;;;27.07;15.20;;;;;;;;;;5079557;28;20226;-87
2022/01/16 14:31:08;;;;;;;30.13;16.47;;;;;;;;;;5094070;28;20265;-86
2022/01/16 14:33:35;;;;;;;28.33;14.90;;;;;;;;;;5094369;28;20232;-85
2022/01/16 14:36:02;;;;;;;29.73;16.10;;;;;;;;;;5094749;28;20215;-84
2022/01/16 14:38:29;;;;;;;13.07;8.40;;;;;;;;;;5088769;28;20226;-84
2022/01/16 14:40:58;;;;;;;20.30;10.93;;;;;;;;;;5074828;28;20257;-84
2022/01/16 14:43:27;;;;;;;34.37;18.07;;;;;;;;;;5074584;28;20267;-86
2022/01/16 14:45:55;;;;;;;22.60;14.00;;;;;;;;;;5073377;28;20250;-84
2022/01/16 14:48:24;;;;;;;28.70;15.53;;;;;;;;;;5072510;28;20373;-84
2022/01/16 14:50:51;;;;;;;26.20;16.63;;;;;;;;;;5075332;28;20225;-85
2022/01/16 14:53:19;;;;;;;26.43;15.47;;;;;;;;;;5074260;28;20831;-85
2022/01/16 14:55:47;;;;;;;21.40;12.90;;;;;;;;;;5075025;28;20206;-85
2022/01/16 14:58:14;;;;;;;23.20;14.50;;;;;;;;;;5074806;28;20238;-85
2022/01/16 15:00:41;;;;;;;26.67;15.73;;;;;;;;;;5074529;28;20227;-85
2022/01/16 15:03:08;;;;;;;24.73;16.23;;;;;;;;;;5073177;28;20725;-85
2022/01/16 15:05:36;;;;;;;22.37;13.17;;;;;;;;;;5074841;28;20194;-85
2022/01/16 15:08:04;;;;;;;25.93;15.47;;;;;;;;;;5073962;28;20238;-84